sensor_id;sensor_type;location;lat;lon;timestamp;P1;durP1;ratioP1;P2;durP2;ratioP2
18659;SDS011;9459;50.254;19.014;2023-05-27T00:01:10;11.52;;;4.93;;
18659;SDS011;9459;50.254;19.014;2023-05-27T00:03:40;7.07;;;3.83;;
18659;SDS011;9459;50.254;19.014;2023-05-27T00:06:08;13.35;;;4.78;;
18659;SDS011;9459;50.254;19.014;2023-05-27T00:08:37;11.32;;;4.20;;
18659;SDS011;9459;50.254;19.014;2023-05-27T00:11:06;11.10;;;4.47;;
18659;SDS011;9459;50.254;19.014;2023-05-27T00:13:36;9.30;;;4.47;;
18659;SDS011;9459;50.254;19.014;2023-05-27T00:16:04;11.32;;;4.68;;
18659;SDS011;9459;50.254;19.014;2023-05-27T00:18:33;11.43;;;4.25;;
18659;SDS011;9459;50.254;19.014;2023-05-27T00:21:03;13.45;;;4.43;;
18659;SDS011;9459;50.254;19.014;2023-05-27T00:23:32;17.15;;;5.32;;
18659;SDS011;9459;50.254;19.014;2023-05-27T00:26:00;13.75;;;4.60;;
18659;SDS011;9459;50.254;19.014;2023-05-27T00:28:28;14.93;;;5.47;;
18659;SDS011;9459;50.254;19.014;2023-05-27T00:30:59;16.88;;;5.18;;
18659;SDS011;9459;50.254;19.014;2023-05-27T00:33:28;13.77;;;5.25;;
18659;SDS011;9459;50.254;19.014;2023-05-27T00:35:57;9.70;;;4.25;;
18659;SDS011;9459;50.254;19.014;2023-05-27T00:38:25;13.18;;;4.95;;
18659;SDS011;9459;50.254;19.014;2023-05-27T00:40:55;15.27;;;5.57;;
18659;SDS011;9459;50.254;19.014;2023-05-27T00:43:24;13.40;;;5.18;;
18659;SDS011;9459;50.254;19.014;2023-05-27T00:45:53;13.20;;;5.55;;
18659;SDS011;9459;50.254;19.014;2023-05-27T00:48:23;10.55;;;4.20;;
18659;SDS011;9459;50.254;19.014;2023-05-27T00:50:52;12.38;;;4.60;;
18659;SDS011;9459;50.254;19.014;2023-05-27T00:53:21;10.93;;;4.95;;
18659;SDS011;9459;50.254;19.014;2023-05-27T00:55:51;10.32;;;4.70;;
18659;SDS011;9459;50.254;19.014;2023-05-27T00:58:21;14.35;;;5.18;;
18659;SDS011;9459;50.254;19.014;2023-05-27T01:00:50;14.20;;;5.70;;
18659;SDS011;9459;50.254;19.014;2023-05-27T01:03:19;11.85;;;4.90;;
18659;SDS011;9459;50.254;19.014;2023-05-27T01:05:49;11.85;;;4.97;;
18659;SDS011;9459;50.254;19.014;2023-05-27T01:10:51;10.57;;;4.88;;
18659;SDS011;9459;50.254;19.014;2023-05-27T01:13:23;14.82;;;4.90;;
18659;SDS011;9459;50.254;19.014;2023-05-27T01:15:59;13.23;;;4.65;;
18659;SDS011;9459;50.254;19.014;2023-05-27T01:18:28;15.02;;;5.30;;
18659;SDS011;9459;50.254;19.014;2023-05-27T01:21:05;12.50;;;4.60;;
18659;SDS011;9459;50.254;19.014;2023-05-27T01:23:35;12.45;;;5.15;;
18659;SDS011;9459;50.254;19.014;2023-05-27T01:26:05;14.48;;;5.28;;
18659;SDS011;9459;50.254;19.014;2023-05-27T01:28:34;15.35;;;5.18;;
18659;SDS011;9459;50.254;19.014;2023-05-27T01:31:06;16.38;;;5.18;;
18659;SDS011;9459;50.254;19.014;2023-05-27T01:33:38;11.68;;;4.88;;
18659;SDS011;9459;50.254;19.014;2023-05-27T01:36:09;12.80;;;5.55;;
18659;SDS011;9459;50.254;19.014;2023-05-27T01:38:43;13.43;;;5.32;;
18659;SDS011;9459;50.254;19.014;2023-05-27T01:41:14;18.13;;;5.72;;
18659;SDS011;9459;50.254;19.014;2023-05-27T01:43:44;15.25;;;5.40;;
18659;SDS011;9459;50.254;19.014;2023-05-27T01:46:12;11.45;;;5.38;;
18659;SDS011;9459;50.254;19.014;2023-05-27T01:48:41;12.02;;;4.97;;
18659;SDS011;9459;50.254;19.014;2023-05-27T01:51:10;13.20;;;5.30;;
18659;SDS011;9459;50.254;19.014;2023-05-27T01:53:38;13.23;;;5.15;;
18659;SDS011;9459;50.254;19.014;2023-05-27T01:56:08;13.52;;;5.03;;
18659;SDS011;9459;50.254;19.014;2023-05-27T01:58:37;16.27;;;5.80;;
18659;SDS011;9459;50.254;19.014;2023-05-27T02:01:05;12.88;;;5.22;;
18659;SDS011;9459;50.254;19.014;2023-05-27T02:03:34;16.33;;;5.82;;
18659;SDS011;9459;50.254;19.014;2023-05-27T02:06:03;14.93;;;5.97;;
18659;SDS011;9459;50.254;19.014;2023-05-27T02:08:31;12.93;;;4.63;;
18659;SDS011;9459;50.254;19.014;2023-05-27T02:11:00;13.02;;;5.13;;
18659;SDS011;9459;50.254;19.014;2023-05-27T02:13:30;9.98;;;5.10;;
18659;SDS011;9459;50.254;19.014;2023-05-27T02:15:59;11.60;;;5.10;;
18659;SDS011;9459;50.254;19.014;2023-05-27T02:18:27;14.18;;;5.75;;
18659;SDS011;9459;50.254;19.014;2023-05-27T02:20:57;13.60;;;5.65;;
18659;SDS011;9459;50.254;19.014;2023-05-27T02:23:32;14.98;;;5.15;;
18659;SDS011;9459;50.254;19.014;2023-05-27T02:26:01;12.10;;;5.05;;
18659;SDS011;9459;50.254;19.014;2023-05-27T02:28:33;8.27;;;4.82;;
18659;SDS011;9459;50.254;19.014;2023-05-27T02:31:02;13.38;;;5.75;;
18659;SDS011;9459;50.254;19.014;2023-05-27T02:33:31;11.43;;;4.70;;
18659;SDS011;9459;50.254;19.014;2023-05-27T02:36:00;11.27;;;4.90;;
18659;SDS011;9459;50.254;19.014;2023-05-27T02:38:28;14.00;;;5.15;;
18659;SDS011;9459;50.254;19.014;2023-05-27T02:40:57;12.27;;;5.40;;
18659;SDS011;9459;50.254;19.014;2023-05-27T02:43:25;12.32;;;5.53;;
18659;SDS011;9459;50.254;19.014;2023-05-27T02:45:56;11.13;;;5.00;;
18659;SDS011;9459;50.254;19.014;2023-05-27T02:48:24;11.98;;;5.32;;
18659;SDS011;9459;50.254;19.014;2023-05-27T02:50:53;11.35;;;4.65;;
18659;SDS011;9459;50.254;19.014;2023-05-27T02:53:21;12.63;;;5.28;;
18659;SDS011;9459;50.254;19.014;2023-05-27T02:55:50;16.60;;;5.97;;
18659;SDS011;9459;50.254;19.014;2023-05-27T02:58:19;13.98;;;4.88;;
18659;SDS011;9459;50.254;19.014;2023-05-27T03:00:47;17.77;;;4.93;;
18659;SDS011;9459;50.254;19.014;2023-05-27T03:03:18;13.95;;;4.60;;
18659;SDS011;9459;50.254;19.014;2023-05-27T03:05:46;13.02;;;5.30;;
18659;SDS011;9459;50.254;19.014;2023-05-27T03:08:16;13.80;;;5.05;;
18659;SDS011;9459;50.254;19.014;2023-05-27T03:10:44;12.85;;;5.38;;
18659;SDS011;9459;50.254;19.014;2023-05-27T03:13:12;18.33;;;6.25;;
18659;SDS011;9459;50.254;19.014;2023-05-27T03:15:41;11.90;;;4.93;;
18659;SDS011;9459;50.254;19.014;2023-05-27T03:18:09;13.50;;;5.45;;
18659;SDS011;9459;50.254;19.014;2023-05-27T03:20:39;14.20;;;5.32;;
18659;SDS011;9459;50.254;19.014;2023-05-27T03:23:09;12.77;;;5.15;;
18659;SDS011;9459;50.254;19.014;2023-05-27T03:25:37;14.00;;;4.97;;
18659;SDS011;9459;50.254;19.014;2023-05-27T03:28:06;16.25;;;5.50;;
18659;SDS011;9459;50.254;19.014;2023-05-27T03:30:34;17.52;;;5.15;;
18659;SDS011;9459;50.254;19.014;2023-05-27T03:33:03;14.15;;;5.05;;
18659;SDS011;9459;50.254;19.014;2023-05-27T03:35:32;13.77;;;5.35;;
18659;SDS011;9459;50.254;19.014;2023-05-27T03:38:02;15.55;;;5.32;;
18659;SDS011;9459;50.254;19.014;2023-05-27T03:40:30;14.75;;;5.50;;
18659;SDS011;9459;50.254;19.014;2023-05-27T03:42:59;13.20;;;4.85;;
18659;SDS011;9459;50.254;19.014;2023-05-27T03:45:27;15.00;;;4.85;;
18659;SDS011;9459;50.254;19.014;2023-05-27T03:47:56;21.73;;;6.65;;
18659;SDS011;9459;50.254;19.014;2023-05-27T03:50:24;12.98;;;4.82;;
18659;SDS011;9459;50.254;19.014;2023-05-27T03:52:53;14.93;;;4.55;;
18659;SDS011;9459;50.254;19.014;2023-05-27T03:55:23;20.00;;;6.18;;
18659;SDS011;9459;50.254;19.014;2023-05-27T03:57:52;11.77;;;4.68;;
18659;SDS011;9459;50.254;19.014;2023-05-27T04:00:20;13.75;;;5.40;;
18659;SDS011;9459;50.254;19.014;2023-05-27T04:02:49;15.98;;;5.47;;
18659;SDS011;9459;50.254;19.014;2023-05-27T04:05:19;12.65;;;4.88;;
18659;SDS011;9459;50.254;19.014;2023-05-27T04:07:48;12.60;;;4.85;;
18659;SDS011;9459;50.254;19.014;2023-05-27T04:10:16;10.57;;;4.28;;
18659;SDS011;9459;50.254;19.014;2023-05-27T04:12:46;15.82;;;5.20;;
18659;SDS011;9459;50.254;19.014;2023-05-27T04:15:15;15.55;;;5.70;;
18659;SDS011;9459;50.254;19.014;2023-05-27T04:17:43;15.45;;;5.20;;
18659;SDS011;9459;50.254;19.014;2023-05-27T04:20:12;13.95;;;5.15;;
18659;SDS011;9459;50.254;19.014;2023-05-27T04:22:43;17.40;;;5.18;;
18659;SDS011;9459;50.254;19.014;2023-05-27T04:25:11;18.60;;;5.50;;
18659;SDS011;9459;50.254;19.014;2023-05-27T04:27:40;19.85;;;5.63;;
18659;SDS011;9459;50.254;19.014;2023-05-27T04:30:10;15.02;;;4.68;;
18659;SDS011;9459;50.254;19.014;2023-05-27T04:32:39;14.70;;;5.30;;
18659;SDS011;9459;50.254;19.014;2023-05-27T04:35:08;14.07;;;5.15;;
18659;SDS011;9459;50.254;19.014;2023-05-27T04:37:38;16.77;;;4.65;;
18659;SDS011;9459;50.254;19.014;2023-05-27T04:40:07;14.90;;;5.13;;
18659;SDS011;9459;50.254;19.014;2023-05-27T04:42:38;15.00;;;5.32;;
18659;SDS011;9459;50.254;19.014;2023-05-27T04:45:06;14.10;;;4.72;;
18659;SDS011;9459;50.254;19.014;2023-05-27T04:47:39;12.30;;;4.55;;
18659;SDS011;9459;50.254;19.014;2023-05-27T04:50:08;13.25;;;4.82;;
18659;SDS011;9459;50.254;19.014;2023-05-27T04:52:38;18.00;;;6.32;;
18659;SDS011;9459;50.254;19.014;2023-05-27T04:55:08;15.20;;;5.18;;
18659;SDS011;9459;50.254;19.014;2023-05-27T04:57:37;14.45;;;5.18;;
18659;SDS011;9459;50.254;19.014;2023-05-27T05:00:08;22.10;;;5.55;;
18659;SDS011;9459;50.254;19.014;2023-05-27T05:02:51;20.13;;;4.97;;
18659;SDS011;9459;50.254;19.014;2023-05-27T05:05:28;12.98;;;4.25;;
18659;SDS011;9459;50.254;19.014;2023-05-27T05:07:57;20.85;;;5.90;;
18659;SDS011;9459;50.254;19.014;2023-05-27T05:10:25;16.67;;;5.00;;
18659;SDS011;9459;50.254;19.014;2023-05-27T05:12:54;11.23;;;3.90;;
18659;SDS011;9459;50.254;19.014;2023-05-27T05:15:25;9.13;;;4.43;;
18659;SDS011;9459;50.254;19.014;2023-05-27T05:17:55;15.48;;;5.10;;
18659;SDS011;9459;50.254;19.014;2023-05-27T05:20:27;13.75;;;4.82;;
18659;SDS011;9459;50.254;19.014;2023-05-27T05:22:56;11.13;;;4.45;;
18659;SDS011;9459;50.254;19.014;2023-05-27T05:25:24;13.02;;;4.70;;
18659;SDS011;9459;50.254;19.014;2023-05-27T05:27:53;15.98;;;4.40;;
18659;SDS011;9459;50.254;19.014;2023-05-27T05:30:21;13.98;;;4.53;;
18659;SDS011;9459;50.254;19.014;2023-05-27T05:32:50;11.32;;;4.35;;
18659;SDS011;9459;50.254;19.014;2023-05-27T05:35:20;15.05;;;3.92;;
18659;SDS011;9459;50.254;19.014;2023-05-27T05:37:49;13.98;;;4.85;;
18659;SDS011;9459;50.254;19.014;2023-05-27T05:40:18;10.50;;;4.15;;
18659;SDS011;9459;50.254;19.014;2023-05-27T05:42:46;16.90;;;4.32;;
18659;SDS011;9459;50.254;19.014;2023-05-27T05:45:15;11.82;;;4.57;;
18659;SDS011;9459;50.254;19.014;2023-05-27T05:47:44;11.93;;;4.85;;
18659;SDS011;9459;50.254;19.014;2023-05-27T05:50:12;16.00;;;5.18;;
18659;SDS011;9459;50.254;19.014;2023-05-27T05:52:42;10.52;;;4.47;;
18659;SDS011;9459;50.254;19.014;2023-05-27T05:55:11;10.82;;;4.28;;
18659;SDS011;9459;50.254;19.014;2023-05-27T05:57:39;13.70;;;4.93;;
18659;SDS011;9459;50.254;19.014;2023-05-27T06:00:08;13.02;;;4.72;;
18659;SDS011;9459;50.254;19.014;2023-05-27T06:02:38;11.95;;;5.13;;
18659;SDS011;9459;50.254;19.014;2023-05-27T06:05:08;13.65;;;5.13;;
18659;SDS011;9459;50.254;19.014;2023-05-27T06:07:37;13.93;;;5.23;;
18659;SDS011;9459;50.254;19.014;2023-05-27T06:10:07;12.88;;;5.20;;
18659;SDS011;9459;50.254;19.014;2023-05-27T06:12:37;11.80;;;5.25;;
18659;SDS011;9459;50.254;19.014;2023-05-27T06:15:06;13.82;;;5.97;;
18659;SDS011;9459;50.254;19.014;2023-05-27T06:17:37;17.30;;;5.57;;
18659;SDS011;9459;50.254;19.014;2023-05-27T06:20:06;16.52;;;5.65;;
18659;SDS011;9459;50.254;19.014;2023-05-27T06:22:35;13.47;;;4.93;;
18659;SDS011;9459;50.254;19.014;2023-05-27T06:25:07;15.45;;;4.82;;
18659;SDS011;9459;50.254;19.014;2023-05-27T06:27:36;9.82;;;4.10;;
18659;SDS011;9459;50.254;19.014;2023-05-27T06:30:06;12.20;;;5.38;;
18659;SDS011;9459;50.254;19.014;2023-05-27T06:32:35;11.38;;;4.07;;
18659;SDS011;9459;50.254;19.014;2023-05-27T06:35:04;10.45;;;4.95;;
18659;SDS011;9459;50.254;19.014;2023-05-27T06:37:33;12.80;;;4.07;;
18659;SDS011;9459;50.254;19.014;2023-05-27T06:40:02;12.68;;;4.22;;
18659;SDS011;9459;50.254;19.014;2023-05-27T06:42:32;11.60;;;4.20;;
18659;SDS011;9459;50.254;19.014;2023-05-27T06:45:01;15.80;;;4.60;;
18659;SDS011;9459;50.254;19.014;2023-05-27T06:47:30;12.13;;;4.47;;
18659;SDS011;9459;50.254;19.014;2023-05-27T06:49:58;9.20;;;4.80;;
18659;SDS011;9459;50.254;19.014;2023-05-27T06:52:27;12.60;;;5.03;;
18659;SDS011;9459;50.254;19.014;2023-05-27T06:54:55;12.57;;;5.20;;
18659;SDS011;9459;50.254;19.014;2023-05-27T06:57:24;10.73;;;4.45;;
18659;SDS011;9459;50.254;19.014;2023-05-27T06:59:56;9.73;;;4.53;;
18659;SDS011;9459;50.254;19.014;2023-05-27T07:02:25;15.07;;;5.15;;
18659;SDS011;9459;50.254;19.014;2023-05-27T07:04:53;15.93;;;5.43;;
18659;SDS011;9459;50.254;19.014;2023-05-27T07:07:23;14.98;;;5.65;;
18659;SDS011;9459;50.254;19.014;2023-05-27T07:09:53;9.40;;;4.20;;
18659;SDS011;9459;50.254;19.014;2023-05-27T07:12:24;7.70;;;4.30;;
18659;SDS011;9459;50.254;19.014;2023-05-27T07:14:53;14.63;;;3.95;;
18659;SDS011;9459;50.254;19.014;2023-05-27T07:17:23;9.50;;;3.53;;
18659;SDS011;9459;50.254;19.014;2023-05-27T07:19:52;8.00;;;3.58;;
18659;SDS011;9459;50.254;19.014;2023-05-27T07:22:20;10.15;;;3.78;;
18659;SDS011;9459;50.254;19.014;2023-05-27T07:24:48;9.32;;;3.47;;
18659;SDS011;9459;50.254;19.014;2023-05-27T07:27:17;10.82;;;3.70;;
18659;SDS011;9459;50.254;19.014;2023-05-27T07:29:46;11.05;;;4.22;;
18659;SDS011;9459;50.254;19.014;2023-05-27T07:32:14;11.90;;;4.28;;
18659;SDS011;9459;50.254;19.014;2023-05-27T07:34:44;8.95;;;3.67;;
18659;SDS011;9459;50.254;19.014;2023-05-27T07:37:13;9.50;;;4.43;;
18659;SDS011;9459;50.254;19.014;2023-05-27T07:39:41;8.57;;;3.70;;
18659;SDS011;9459;50.254;19.014;2023-05-27T07:42:10;8.02;;;3.63;;
18659;SDS011;9459;50.254;19.014;2023-05-27T07:44:38;7.75;;;3.15;;
18659;SDS011;9459;50.254;19.014;2023-05-27T07:47:07;9.10;;;3.47;;
18659;SDS011;9459;50.254;19.014;2023-05-27T07:49:35;9.63;;;4.18;;
18659;SDS011;9459;50.254;19.014;2023-05-27T07:52:08;7.30;;;3.45;;
18659;SDS011;9459;50.254;19.014;2023-05-27T07:54:36;9.77;;;4.30;;
18659;SDS011;9459;50.254;19.014;2023-05-27T07:57:20;7.47;;;3.35;;
18659;SDS011;9459;50.254;19.014;2023-05-27T07:59:49;7.93;;;3.80;;
18659;SDS011;9459;50.254;19.014;2023-05-27T08:02:17;6.72;;;3.63;;
18659;SDS011;9459;50.254;19.014;2023-05-27T08:04:49;9.25;;;4.38;;
18659;SDS011;9459;50.254;19.014;2023-05-27T08:07:19;9.25;;;4.50;;
18659;SDS011;9459;50.254;19.014;2023-05-27T08:12:16;8.23;;;3.92;;
18659;SDS011;9459;50.254;19.014;2023-05-27T08:14:45;10.05;;;3.88;;
18659;SDS011;9459;50.254;19.014;2023-05-27T08:17:14;8.77;;;3.90;;
18659;SDS011;9459;50.254;19.014;2023-05-27T08:19:42;10.20;;;3.92;;
18659;SDS011;9459;50.254;19.014;2023-05-27T08:22:11;9.80;;;4.22;;
18659;SDS011;9459;50.254;19.014;2023-05-27T08:24:41;10.32;;;3.78;;
18659;SDS011;9459;50.254;19.014;2023-05-27T08:27:12;8.98;;;3.80;;
18659;SDS011;9459;50.254;19.014;2023-05-27T08:29:41;11.77;;;4.25;;
18659;SDS011;9459;50.254;19.014;2023-05-27T08:32:09;9.65;;;4.20;;
18659;SDS011;9459;50.254;19.014;2023-05-27T08:34:38;11.23;;;4.57;;
18659;SDS011;9459;50.254;19.014;2023-05-27T08:37:08;9.73;;;3.80;;
18659;SDS011;9459;50.254;19.014;2023-05-27T08:39:36;11.65;;;4.05;;
18659;SDS011;9459;50.254;19.014;2023-05-27T08:42:07;11.48;;;3.78;;
18659;SDS011;9459;50.254;19.014;2023-05-27T08:44:35;11.85;;;4.18;;
18659;SDS011;9459;50.254;19.014;2023-05-27T08:47:04;9.70;;;3.35;;
18659;SDS011;9459;50.254;19.014;2023-05-27T08:49:32;10.07;;;3.88;;
18659;SDS011;9459;50.254;19.014;2023-05-27T08:52:02;9.30;;;3.53;;
18659;SDS011;9459;50.254;19.014;2023-05-27T08:54:31;7.70;;;3.65;;
18659;SDS011;9459;50.254;19.014;2023-05-27T08:57:00;7.47;;;3.83;;
18659;SDS011;9459;50.254;19.014;2023-05-27T08:59:33;8.15;;;3.55;;
18659;SDS011;9459;50.254;19.014;2023-05-27T09:02:03;7.63;;;3.45;;
18659;SDS011;9459;50.254;19.014;2023-05-27T09:04:37;8.38;;;3.67;;
18659;SDS011;9459;50.254;19.014;2023-05-27T09:09:35;11.75;;;3.80;;
18659;SDS011;9459;50.254;19.014;2023-05-27T09:12:04;7.90;;;3.55;;
18659;SDS011;9459;50.254;19.014;2023-05-27T09:14:36;8.77;;;3.60;;
18659;SDS011;9459;50.254;19.014;2023-05-27T09:17:05;8.18;;;3.33;;
18659;SDS011;9459;50.254;19.014;2023-05-27T09:19:35;11.50;;;3.97;;
18659;SDS011;9459;50.254;19.014;2023-05-27T09:22:03;10.32;;;4.15;;
18659;SDS011;9459;50.254;19.014;2023-05-27T09:24:32;9.02;;;3.42;;
18659;SDS011;9459;50.254;19.014;2023-05-27T09:27:01;8.70;;;3.73;;
18659;SDS011;9459;50.254;19.014;2023-05-27T09:29:29;8.43;;;3.92;;
18659;SDS011;9459;50.254;19.014;2023-05-27T09:32:01;9.20;;;3.85;;
18659;SDS011;9459;50.254;19.014;2023-05-27T09:34:29;9.52;;;4.07;;
18659;SDS011;9459;50.254;19.014;2023-05-27T09:36:58;8.68;;;3.50;;
18659;SDS011;9459;50.254;19.014;2023-05-27T09:39:27;6.70;;;3.25;;
18659;SDS011;9459;50.254;19.014;2023-05-27T09:41:56;11.57;;;4.05;;
18659;SDS011;9459;50.254;19.014;2023-05-27T09:44:26;7.60;;;4.03;;
18659;SDS011;9459;50.254;19.014;2023-05-27T09:46:56;9.23;;;3.13;;
18659;SDS011;9459;50.254;19.014;2023-05-27T09:49:27;8.07;;;3.70;;
18659;SDS011;9459;50.254;19.014;2023-05-27T09:51:57;7.55;;;3.22;;
18659;SDS011;9459;50.254;19.014;2023-05-27T09:54:25;7.67;;;3.57;;
18659;SDS011;9459;50.254;19.014;2023-05-27T09:56:54;12.07;;;4.15;;
18659;SDS011;9459;50.254;19.014;2023-05-27T09:59:24;7.55;;;3.80;;
18659;SDS011;9459;50.254;19.014;2023-05-27T10:01:53;7.17;;;3.37;;
18659;SDS011;9459;50.254;19.014;2023-05-27T10:04:22;7.80;;;3.38;;
18659;SDS011;9459;50.254;19.014;2023-05-27T10:06:53;10.25;;;3.38;;
18659;SDS011;9459;50.254;19.014;2023-05-27T10:09:22;7.70;;;4.03;;
18659;SDS011;9459;50.254;19.014;2023-05-27T10:11:50;6.40;;;3.40;;
18659;SDS011;9459;50.254;19.014;2023-05-27T10:14:19;6.40;;;3.10;;
18659;SDS011;9459;50.254;19.014;2023-05-27T10:16:51;6.32;;;3.00;;
18659;SDS011;9459;50.254;19.014;2023-05-27T10:19:21;7.88;;;3.63;;
18659;SDS011;9459;50.254;19.014;2023-05-27T10:21:50;8.27;;;4.20;;
18659;SDS011;9459;50.254;19.014;2023-05-27T10:26:59;7.37;;;3.37;;
18659;SDS011;9459;50.254;19.014;2023-05-27T10:29:34;6.93;;;3.17;;
18659;SDS011;9459;50.254;19.014;2023-05-27T10:32:05;6.28;;;3.10;;
18659;SDS011;9459;50.254;19.014;2023-05-27T10:34:34;6.70;;;3.50;;
18659;SDS011;9459;50.254;19.014;2023-05-27T10:37:03;7.03;;;3.50;;
18659;SDS011;9459;50.254;19.014;2023-05-27T10:39:33;6.65;;;3.20;;
18659;SDS011;9459;50.254;19.014;2023-05-27T10:42:02;7.72;;;2.90;;
18659;SDS011;9459;50.254;19.014;2023-05-27T10:44:31;7.03;;;3.28;;
18659;SDS011;9459;50.254;19.014;2023-05-27T10:47:02;8.90;;;3.50;;
18659;SDS011;9459;50.254;19.014;2023-05-27T10:49:33;5.60;;;3.33;;
18659;SDS011;9459;50.254;19.014;2023-05-27T10:52:07;6.15;;;3.30;;
18659;SDS011;9459;50.254;19.014;2023-05-27T10:54:41;7.45;;;2.83;;
18659;SDS011;9459;50.254;19.014;2023-05-27T10:57:11;8.43;;;3.17;;
18659;SDS011;9459;50.254;19.014;2023-05-27T10:59:40;6.60;;;2.97;;
18659;SDS011;9459;50.254;19.014;2023-05-27T11:02:16;5.65;;;3.15;;
18659;SDS011;9459;50.254;19.014;2023-05-27T11:04:45;6.38;;;2.80;;
18659;SDS011;9459;50.254;19.014;2023-05-27T11:07:17;3.55;;;2.70;;
18659;SDS011;9459;50.254;19.014;2023-05-27T11:09:48;4.13;;;2.92;;
18659;SDS011;9459;50.254;19.014;2023-05-27T11:12:18;4.50;;;2.85;;
18659;SDS011;9459;50.254;19.014;2023-05-27T11:14:48;5.07;;;2.67;;
18659;SDS011;9459;50.254;19.014;2023-05-27T11:17:18;4.80;;;2.65;;
18659;SDS011;9459;50.254;19.014;2023-05-27T11:19:47;6.43;;;2.55;;
18659;SDS011;9459;50.254;19.014;2023-05-27T11:22:17;6.47;;;3.00;;
18659;SDS011;9459;50.254;19.014;2023-05-27T11:24:56;5.82;;;3.15;;
18659;SDS011;9459;50.254;19.014;2023-05-27T11:27:31;5.13;;;3.00;;
18659;SDS011;9459;50.254;19.014;2023-05-27T11:30:05;4.35;;;2.53;;
18659;SDS011;9459;50.254;19.014;2023-05-27T11:32:37;4.97;;;2.40;;
18659;SDS011;9459;50.254;19.014;2023-05-27T11:35:12;7.13;;;2.92;;
18659;SDS011;9459;50.254;19.014;2023-05-27T11:37:44;5.47;;;3.10;;
18659;SDS011;9459;50.254;19.014;2023-05-27T11:40:15;6.35;;;3.80;;
18659;SDS011;9459;50.254;19.014;2023-05-27T11:42:44;6.60;;;2.88;;
18659;SDS011;9459;50.254;19.014;2023-05-27T11:45:16;3.95;;;2.75;;
18659;SDS011;9459;50.254;19.014;2023-05-27T11:47:46;7.82;;;3.13;;
18659;SDS011;9459;50.254;19.014;2023-05-27T11:50:19;6.22;;;3.28;;
18659;SDS011;9459;50.254;19.014;2023-05-27T11:52:52;4.88;;;2.90;;
18659;SDS011;9459;50.254;19.014;2023-05-27T11:55:22;5.43;;;2.80;;
18659;SDS011;9459;50.254;19.014;2023-05-27T11:57:51;6.38;;;2.90;;
18659;SDS011;9459;50.254;19.014;2023-05-27T12:00:20;4.38;;;2.65;;
18659;SDS011;9459;50.254;19.014;2023-05-27T12:02:48;6.85;;;3.00;;
18659;SDS011;9459;50.254;19.014;2023-05-27T12:05:18;5.20;;;3.00;;
18659;SDS011;9459;50.254;19.014;2023-05-27T12:08:01;9.63;;;3.38;;
18659;SDS011;9459;50.254;19.014;2023-05-27T12:10:31;4.55;;;2.80;;
18659;SDS011;9459;50.254;19.014;2023-05-27T12:13:03;4.78;;;2.35;;
18659;SDS011;9459;50.254;19.014;2023-05-27T12:15:32;4.80;;;2.95;;
18659;SDS011;9459;50.254;19.014;2023-05-27T12:18:01;4.25;;;2.70;;
18659;SDS011;9459;50.254;19.014;2023-05-27T12:20:30;5.18;;;2.72;;
18659;SDS011;9459;50.254;19.014;2023-05-27T12:22:59;4.75;;;2.72;;
18659;SDS011;9459;50.254;19.014;2023-05-27T12:25:27;6.53;;;2.58;;
18659;SDS011;9459;50.254;19.014;2023-05-27T12:27:57;3.97;;;2.67;;
18659;SDS011;9459;50.254;19.014;2023-05-27T12:30:26;6.20;;;3.15;;
18659;SDS011;9459;50.254;19.014;2023-05-27T12:32:54;6.57;;;2.80;;
18659;SDS011;9459;50.254;19.014;2023-05-27T12:35:23;4.90;;;3.15;;
18659;SDS011;9459;50.254;19.014;2023-05-27T12:37:52;5.20;;;2.70;;
18659;SDS011;9459;50.254;19.014;2023-05-27T12:40:20;4.07;;;2.58;;
18659;SDS011;9459;50.254;19.014;2023-05-27T12:42:49;4.88;;;2.60;;
18659;SDS011;9459;50.254;19.014;2023-05-27T12:45:19;5.07;;;3.03;;
18659;SDS011;9459;50.254;19.014;2023-05-27T12:50:17;6.13;;;2.38;;
18659;SDS011;9459;50.254;19.014;2023-05-27T12:52:47;5.10;;;2.63;;
18659;SDS011;9459;50.254;19.014;2023-05-27T12:55:16;4.82;;;2.65;;
18659;SDS011;9459;50.254;19.014;2023-05-27T12:57:46;4.85;;;2.50;;
18659;SDS011;9459;50.254;19.014;2023-05-27T13:00:16;4.43;;;2.40;;
18659;SDS011;9459;50.254;19.014;2023-05-27T13:02:47;5.03;;;2.42;;
18659;SDS011;9459;50.254;19.014;2023-05-27T13:05:16;4.83;;;2.30;;
18659;SDS011;9459;50.254;19.014;2023-05-27T13:07:55;7.38;;;2.78;;
18659;SDS011;9459;50.254;19.014;2023-05-27T13:10:25;6.47;;;3.00;;
18659;SDS011;9459;50.254;19.014;2023-05-27T13:12:55;3.83;;;2.00;;
18659;SDS011;9459;50.254;19.014;2023-05-27T13:15:24;3.55;;;1.80;;
18659;SDS011;9459;50.254;19.014;2023-05-27T13:17:54;4.78;;;2.28;;
18659;SDS011;9459;50.254;19.014;2023-05-27T13:20:23;3.67;;;1.85;;
18659;SDS011;9459;50.254;19.014;2023-05-27T13:22:52;3.90;;;1.83;;
18659;SDS011;9459;50.254;19.014;2023-05-27T13:25:21;3.53;;;1.75;;
18659;SDS011;9459;50.254;19.014;2023-05-27T13:27:49;4.32;;;2.17;;
18659;SDS011;9459;50.254;19.014;2023-05-27T13:30:20;2.58;;;1.73;;
18659;SDS011;9459;50.254;19.014;2023-05-27T13:32:49;4.50;;;2.10;;
18659;SDS011;9459;50.254;19.014;2023-05-27T13:35:19;3.17;;;2.05;;
18659;SDS011;9459;50.254;19.014;2023-05-27T13:37:48;2.95;;;2.10;;
18659;SDS011;9459;50.254;19.014;2023-05-27T13:40:16;3.78;;;2.10;;
18659;SDS011;9459;50.254;19.014;2023-05-27T13:42:45;3.55;;;2.10;;
18659;SDS011;9459;50.254;19.014;2023-05-27T13:45:14;4.97;;;2.33;;
18659;SDS011;9459;50.254;19.014;2023-05-27T13:47:43;3.15;;;1.90;;
18659;SDS011;9459;50.254;19.014;2023-05-27T13:50:11;4.53;;;2.05;;
18659;SDS011;9459;50.254;19.014;2023-05-27T13:52:41;4.60;;;1.67;;
18659;SDS011;9459;50.254;19.014;2023-05-27T13:55:12;3.63;;;1.90;;
18659;SDS011;9459;50.254;19.014;2023-05-27T13:57:40;4.88;;;2.00;;
18659;SDS011;9459;50.254;19.014;2023-05-27T14:00:10;3.53;;;1.90;;
18659;SDS011;9459;50.254;19.014;2023-05-27T14:02:40;4.30;;;1.88;;
18659;SDS011;9459;50.254;19.014;2023-05-27T14:05:09;5.20;;;2.50;;
18659;SDS011;9459;50.254;19.014;2023-05-27T14:07:39;4.13;;;2.33;;
18659;SDS011;9459;50.254;19.014;2023-05-27T14:10:10;3.28;;;2.00;;
18659;SDS011;9459;50.254;19.014;2023-05-27T14:12:39;4.07;;;2.17;;
18659;SDS011;9459;50.254;19.014;2023-05-27T14:15:08;2.88;;;1.88;;
18659;SDS011;9459;50.254;19.014;2023-05-27T14:17:37;3.30;;;1.90;;
18659;SDS011;9459;50.254;19.014;2023-05-27T14:20:06;3.17;;;1.73;;
18659;SDS011;9459;50.254;19.014;2023-05-27T14:22:38;3.08;;;1.42;;
18659;SDS011;9459;50.254;19.014;2023-05-27T14:25:08;4.07;;;1.73;;
18659;SDS011;9459;50.254;19.014;2023-05-27T14:27:37;4.00;;;2.20;;
18659;SDS011;9459;50.254;19.014;2023-05-27T14:30:06;3.88;;;1.63;;
18659;SDS011;9459;50.254;19.014;2023-05-27T14:32:35;5.40;;;2.33;;
18659;SDS011;9459;50.254;19.014;2023-05-27T14:35:05;3.25;;;1.65;;
18659;SDS011;9459;50.254;19.014;2023-05-27T14:37:34;3.05;;;1.77;;
18659;SDS011;9459;50.254;19.014;2023-05-27T14:40:04;2.75;;;1.63;;
18659;SDS011;9459;50.254;19.014;2023-05-27T14:42:37;3.42;;;1.83;;
18659;SDS011;9459;50.254;19.014;2023-05-27T14:45:06;3.78;;;1.90;;
18659;SDS011;9459;50.254;19.014;2023-05-27T14:47:35;4.45;;;1.60;;
18659;SDS011;9459;50.254;19.014;2023-05-27T14:50:04;3.65;;;2.25;;
18659;SDS011;9459;50.254;19.014;2023-05-27T14:52:33;2.65;;;1.50;;
18659;SDS011;9459;50.254;19.014;2023-05-27T14:55:05;2.80;;;1.52;;
18659;SDS011;9459;50.254;19.014;2023-05-27T14:57:38;3.85;;;1.73;;
18659;SDS011;9459;50.254;19.014;2023-05-27T15:00:08;2.75;;;1.55;;
18659;SDS011;9459;50.254;19.014;2023-05-27T15:02:37;2.95;;;1.70;;
18659;SDS011;9459;50.254;19.014;2023-05-27T15:05:06;2.80;;;1.45;;
18659;SDS011;9459;50.254;19.014;2023-05-27T15:07:36;2.05;;;1.55;;